Thunder radar more information blitzortung!


Radar de pluja more information rain snow radar


Visita la nostra xarxa de llocs de meteo:

Template documentation
and downloads

And another site



No particular awareness of the weather is required.    There are no Weather-warnings

Pagina Historial Weather Underground text

Diari Resum May 26, 2017 Unitats:  Imperial    Mètric   Tant
« Previous Dia
SegĂźent Dia »
Diari Setmana Mensual Anual Personalitzada
  Maxima: Minima: Media:
Temperatura: 81.5 °F 59.5 °F 72 °F
Punt de rosada: 57.7 °F 46.6 °F 55 °F
Humitat: 82 % 42 % 57 %
Wind Speed: 12.7 mph 0 mph 5.2 mph
RĂ fegues de vent: 12.7 mph - -
Vent:- - East
Pression baro: 30 in 29.9 in -
Precipitacions: 0 in    
Historical Graphs
 
 
Dades de taula per May 26, 2017
Temps Temperatura Punt de rosada Pression baro Vent Wind Speed RĂ fegues de vent Humitat Rainfall Rate (Hourly)
00:00 61.3 °F 47.8 °F 29.9 in Calm   2 mph 61 % 0 in
00:03 70.9 °F 46.6 °F 29.9 in SW 1.2 mph 1.2 mph 42 % 0 in
00:08 70.7 °F 46.6 °F 29.9 in WSW 1.4 mph 1.4 mph 42 % 0 in
00:10 61.2 °F 47.1 °F 29.9 in Calm     60 % 0 in
00:13 70.5 °F 46.9 °F 29.9 in WSW 1.2 mph 1.2 mph 43 % 0 in
00:20 61.2 °F 47.1 °F 29.9 in Calm     60 % 0 in
00:30 61.5 °F 48.4 °F 29.9 in WSW 1 mph 2 mph 62 % 0 in
00:40 61.3 °F 47.8 °F 29.9 in East 1 mph 1 mph 61 % 0 in
00:50 61.2 °F 47.7 °F 29.9 in ENE 1 mph 2 mph 61 % 0 in
01:00 61.2 °F 47.7 °F 29.9 in Calm     61 % 0 in
01:10 60.8 °F 47.3 °F 29.9 in Calm     61 % 0 in
01:20 60.6 °F 47.5 °F 29.9 in Calm     62 % 0 in
01:30 60.1 °F 46.9 °F 29.9 in WNW 1 mph 1 mph 62 % 0 in
01:40 59.9 °F 46.8 °F 29.9 in WSW 1 mph 1 mph 62 % 0 in
01:50 59.7 °F 46.8 °F 29.9 in SW 1 mph 2 mph 62 % 0 in
02:00 59.5 °F 46.6 °F 29.9 in Calm   2 mph 62 % 0 in
02:10 60.1 °F 46.9 °F 29.9 in Calm     62 % 0 in
02:20 60.8 °F 47.3 °F 29.9 in Calm     61 % 0 in
02:30 61.7 °F 48 °F 29.9 in ESE 1 mph 2 mph 61 % 0 in
02:40 62.8 °F 48.2 °F 29.9 in Calm   1 mph 59 % 0 in
02:50 63.7 °F 49.1 °F 29.9 in NE 1 mph 2 mph 59 % 0 in
03:00 64 °F 48.6 °F 30 in NE 1 mph 1 mph 57 % 0 in
03:10 64.8 °F 49.3 °F 29.9 in NNE 2 mph 3 mph 57 % 0 in
03:20 65.3 °F 49.3 °F 29.9 in NE 2 mph 3 mph 56 % 0 in
03:30 66.2 °F 49.1 °F 30 in ENE 1 mph 3 mph 54 % 0 in
03:40 67.8 °F 50.5 °F 29.9 in Calm   2 mph 54 % 0 in
03:50 68 °F 50.7 °F 29.9 in ENE 2 mph 3 mph 54 % 0 in
04:00 68.9 °F 51.1 °F 30 in ENE 2 mph 3 mph 53 % 0 in
04:10 69.4 °F 51.1 °F 30 in ENE 1 mph 4 mph 52 % 0 in
04:20 69.8 °F 51.4 °F 30 in NE 2 mph 3 mph 52 % 0 in
04:30 70.5 °F 51.4 °F 30 in NE 2 mph 4 mph 51 % 0 in
04:40 71.1 °F 51.4 °F 30 in ENE 2 mph 3 mph 50 % 0 in
04:50 72.7 °F 53.1 °F 30 in Calm   2 mph 50 % 0 in
09:59 72.9 °F 52.5 °F 30 in ESE 3.5 mph 3.5 mph 49 % 0 in
10:04 72.9 °F 52.5 °F 30 in SE 3.5 mph 3.5 mph 49 % 0 in
10:09 73 °F 52.7 °F 30 in NE 5.8 mph 5.8 mph 49 % 0 in
10:14 73.6 °F 52.7 °F 30 in NNE 5.8 mph 5.8 mph 48 % 0 in
10:19 73.8 °F 53.4 °F 30 in East 3.5 mph 3.5 mph 49 % 0 in
10:24 73.9 °F 53.6 °F 30 in NNE 5.8 mph 5.8 mph 49 % 0 in
10:29 74.3 °F 54 °F 30 in ENE 5.8 mph 5.8 mph 49 % 0 in
10:34 74.7 °F 54.1 °F 30 in ESE 3.5 mph 3.5 mph 49 % 0 in
10:39 75.6 °F 55 °F 29.9 in ESE 5.8 mph 5.8 mph 49 % 0 in
10:44 76.3 °F 55.8 °F 29.9 in ENE 3.5 mph 3.5 mph 49 % 0 in
10:45 76.3 °F 55.8 °F 29.9 in ENE 2 mph 5 mph 49 % 0 in
10:50 76.1 °F 55.6 °F 29.9 in East 2 mph 7 mph 49 % 0 in
10:55 76.5 °F 55.2 °F 30 in ESE 5 mph 7 mph 48 % 0 in
11:00 76.8 °F 55.6 °F 30 in ENE 3 mph 4 mph 48 % 0 in
11:05 76.8 °F 55 °F 30 in ESE 4.9 mph 4.9 mph 47 % 0 in
11:10 77.9 °F 55.9 °F 29.9 in East 5.6 mph 5.6 mph 47 % 0 in
11:15 77 °F 54.7 °F 29.9 in ESE 6 mph 8 mph 46 % 0 in
11:20 77.9 °F 55.6 °F 29.9 in East 3 mph 6 mph 46 % 0 in
11:25 77.2 °F 54.9 °F 29.9 in ESE 6 mph 7 mph 46 % 0 in
11:30 78.4 °F 55.9 °F 29.9 in ESE 5.8 mph 5.8 mph 46 % 0 in
11:35 79.9 °F 56.7 °F 29.9 in SSE 4.6 mph 4.6 mph 45 % 0 in
11:40 80.1 °F 56.8 °F 29.9 in ESE 6.4 mph 6.4 mph 45 % 0 in
11:45 79.2 °F 55.4 °F 29.9 in East 4.6 mph 4.6 mph 44 % 0 in
11:50 79.3 °F 54.9 °F 29.9 in ENE 5.8 mph 5.8 mph 43 % 0 in
11:55 78.8 °F 55 °F 29.9 in ESE 5.8 mph 5.8 mph 44 % 0 in
12:00 79.7 °F 55.9 °F 29.9 in NNE 5.6 mph 5.6 mph 44 % 0 in
12:05 80.4 °F 56.5 °F 29.9 in ESE 4.6 mph 4.6 mph 44 % 0 in
12:10 80.4 °F 56.5 °F 29.9 in North 5.6 mph 5.6 mph 44 % 0 in
12:15 80.2 °F 56.3 °F 29.9 in ESE 8.1 mph 8.1 mph 44 % 0 in
12:20 80.4 °F 56.5 °F 29.9 in East 5.8 mph 5.8 mph 44 % 0 in
12:25 81.1 °F 56.5 °F 29.9 in ESE 8.1 mph 8.1 mph 43 % 0 in
12:30 81.5 °F 56.1 °F 29.9 in NE 5.8 mph 5.8 mph 42 % 0 in
12:35 80.8 °F 55.6 °F 29.9 in ENE 5.9 mph 5.9 mph 42 % 0 in
12:40 80.4 °F 55.9 °F 29.9 in North 9.2 mph 9.2 mph 43 % 0 in
12:45 80.8 °F 55.6 °F 29.9 in ESE 6.9 mph 6.9 mph 42 % 0 in
12:50 80.8 °F 55.6 °F 29.9 in ESE 8.1 mph 8.1 mph 42 % 0 in
12:55 80.6 °F 55.4 °F 29.9 in East 9.2 mph 9.2 mph 42 % 0 in
13:00 80.6 °F 55.4 °F 29.9 in ENE 9.2 mph 9.2 mph 42 % 0 in
13:05 80.1 °F 55.6 °F 29.9 in ENE 8.1 mph 8.1 mph 43 % 0 in
13:10 80.6 °F 55.9 °F 29.9 in East 4.6 mph 4.6 mph 43 % 0 in
13:15 80.2 °F 56.3 °F 29.9 in ESE 10.4 mph 10.4 mph 44 % 0 in
13:20 80.1 °F 56.1 °F 29.9 in ESE 11.5 mph 11.5 mph 44 % 0 in
13:25 81 °F 56.5 °F 29.9 in ESE 10.4 mph 10.4 mph 43 % 0 in
13:30 80.1 °F 56.1 °F 29.9 in NE 10.4 mph 10.4 mph 44 % 0 in
13:35 80.8 °F 56.1 °F 29.9 in ENE 8.1 mph 8.1 mph 43 % 0 in
13:40 80.4 °F 56.5 °F 29.9 in ESE 6.9 mph 6.9 mph 44 % 0 in
13:45 80.4 °F 56.5 °F 29.9 in East 10.4 mph 10.4 mph 44 % 0 in
13:50 80.2 °F 56.3 °F 29.9 in ESE 10.7 mph 10.7 mph 44 % 0 in
13:55 80.4 °F 56.5 °F 29.9 in ESE 8.1 mph 8.1 mph 44 % 0 in
14:00 80.1 °F 56.1 °F 29.9 in ESE 10.4 mph 10.4 mph 44 % 0 in
14:05 79.9 °F 55.9 °F 29.9 in ESE 9.4 mph 9.4 mph 44 % 0 in
14:10 79.9 °F 56.7 °F 29.9 in ENE 10.4 mph 10.4 mph 45 % 0 in
14:15 79.7 °F 56.5 °F 29.9 in ENE 12.7 mph 12.7 mph 45 % 0 in
14:20 80.1 °F 56.8 °F 29.9 in ESE 8.5 mph 8.5 mph 45 % 0 in
14:25 80.2 °F 57.6 °F 30 in ENE 9.2 mph 9.2 mph 46 % 0 in
14:30 79.2 °F 56.7 °F 30 in ESE 10.4 mph 10.4 mph 46 % 0 in
14:35 79.9 °F 57.4 °F 30 in ENE 10.4 mph 10.4 mph 46 % 0 in
14:40 79 °F 56.5 °F 29.9 in East 11.4 mph 11.4 mph 46 % 0 in
14:45 79.3 °F 57.4 °F 29.9 in ESE 9.2 mph 9.2 mph 47 % 0 in
14:50 79 °F 57 °F 29.9 in ENE 9.2 mph 9.2 mph 47 % 0 in
14:51 79 °F 57 °F 29.9 in SSE 6.9 mph 6.9 mph 47 % 0 in
14:56 79 °F 57 °F 29.9 in East 8.1 mph 8.1 mph 47 % 0 in
15:01 79.2 °F 57.2 °F 29.9 in ESE 10.4 mph 10.4 mph 47 % 0 in
15:06 78.8 °F 56.8 °F 29.9 in ESE 10.4 mph 10.4 mph 47 % 0 in
15:11 78.4 °F 57 °F 29.9 in ENE 6.9 mph 6.9 mph 48 % 0 in
15:16 78.3 °F 56.5 °F 29.9 in East 11.5 mph 11.5 mph 47 % 0 in
15:21 78.3 °F 57 °F 29.9 in SE 10.4 mph 10.4 mph 48 % 0 in
15:26 78.1 °F 56.8 °F 29.9 in NNE 10.4 mph 10.4 mph 48 % 0 in
15:31 77.7 °F 56.5 °F 29.9 in SE 10.4 mph 10.4 mph 48 % 0 in
15:36 78.3 °F 57 °F 29.9 in ESE 9.2 mph 9.2 mph 48 % 0 in
15:41 77.7 °F 56.5 °F 29.9 in ESE 6.9 mph 6.9 mph 48 % 0 in
15:46 77.2 °F 55.9 °F 29.9 in East 10.4 mph 10.4 mph 48 % 0 in
15:51 77.5 °F 56.3 °F 29.9 in ENE 9.2 mph 9.2 mph 48 % 0 in
15:56 78.6 °F 57.4 °F 29.9 in East 5.8 mph 5.8 mph 48 % 0 in
16:01 78.1 °F 56.8 °F 29.9 in East 12.7 mph 12.7 mph 48 % 0 in
16:06 78.1 °F 56.8 °F 29.9 in SSE 8.5 mph 8.5 mph 48 % 0 in
16:11 77.9 °F 57.2 °F 29.9 in NE 8.7 mph 8.7 mph 49 % 0 in
16:16 78.3 °F 57.6 °F 29.9 in ESE 6.9 mph 6.9 mph 49 % 0 in
16:21 77.9 °F 57.2 °F 29.9 in ESE 9.2 mph 9.2 mph 49 % 0 in
16:26 77.9 °F 57.2 °F 29.9 in ENE 10.4 mph 10.4 mph 49 % 0 in
16:31 77.7 °F 57 °F 29.9 in NNW 8.1 mph 8.1 mph 49 % 0 in
16:36 77.5 °F 56.8 °F 29.9 in SE 6.9 mph 6.9 mph 49 % 0 in
16:41 77.2 °F 57 °F 29.9 in WNW 11.5 mph 11.5 mph 50 % 0 in
16:46 76.8 °F 57.4 °F 29.9 in ENE 6.9 mph 6.9 mph 51 % 0 in
16:51 77.2 °F 57 °F 29.9 in ENE 9.2 mph 9.2 mph 50 % 0 in
16:56 77.4 °F 57.4 °F 29.9 in ENE 5.9 mph 5.9 mph 50 % 0 in
17:01 77 °F 56.8 °F 29.9 in ENE 6.4 mph 6.4 mph 50 % 0 in
17:06 76.6 °F 57.2 °F 29.9 in ENE 10.4 mph 10.4 mph 51 % 0 in
17:11 76.8 °F 57.4 °F 29.9 in SE 5.8 mph 5.8 mph 51 % 0 in
17:16 77 °F 56.8 °F 29.9 in East 6.2 mph 6.2 mph 50 % 0 in
17:21 76.8 °F 56.8 °F 29.9 in NE 6.9 mph 6.9 mph 50 % 0 in
17:22 77 °F 56.5 °F 29.9 in ENE 6.9 mph 6.9 mph 49 % 0 in
17:27 77 °F 56.5 °F 29.9 in NE 9 mph 9 mph 49 % 0 in
17:32 76.8 °F 56.1 °F 29.9 in ENE 9.2 mph 9.2 mph 49 % 0 in
17:37 76.6 °F 55.9 °F 29.9 in East 8.1 mph 8.1 mph 49 % 0 in
17:42 76.8 °F 56.1 °F 29.9 in NNE 7.6 mph 7.6 mph 49 % 0 in
17:47 76.8 °F 55 °F 29.9 in NE 6.9 mph 6.9 mph 47 % 0 in
17:52 77.2 °F 54.1 °F 29.9 in ESE 10.4 mph 10.4 mph 45 % 0 in
17:57 77 °F 54.7 °F 29.9 in ENE 6.9 mph 6.9 mph 46 % 0 in
18:02 77.4 °F 55 °F 29.9 in SE 6.2 mph 6.2 mph 46 % 0 in
18:07 77.4 °F 55 °F 29.9 in North 9.2 mph 9.2 mph 46 % 0 in
18:12 77.4 °F 55.6 °F 29.9 in SE 5.8 mph 5.8 mph 47 % 0 in
18:17 77.4 °F 55.6 °F 29.9 in ESE 6.9 mph 6.9 mph 47 % 0 in
18:22 77 °F 55.2 °F 29.9 in NE 5.8 mph 5.8 mph 47 % 0 in
18:27 77 °F 55.2 °F 29.9 in North 5.8 mph 5.8 mph 47 % 0 in
18:37 77 °F 55.2 °F 29.9 in ENE 3.8 mph 3.8 mph 47 % 0 in
18:42 77 °F 55.2 °F 29.9 in East 4.6 mph 4.6 mph 47 % 0 in
18:47 76.6 °F 55.6 °F 29.9 in East 6.9 mph 6.9 mph 48 % 0 in
18:52 76.8 °F 55.6 °F 29.9 in ESE 5.8 mph 5.8 mph 48 % 0 in
18:57 76.6 °F 55.6 °F 29.9 in East 5.8 mph 5.8 mph 48 % 0 in
19:02 76.1 °F 55 °F 29.9 in East 5.8 mph 5.8 mph 48 % 0 in
19:07 75.9 °F 54.9 °F 29.9 in ENE 5.8 mph 5.8 mph 48 % 0 in
19:12 75.6 °F 55.6 °F 29.9 in ESE 7.6 mph 7.6 mph 50 % 0 in
19:17 74.8 °F 55.6 °F 29.9 in ESE 10.4 mph 10.4 mph 51 % 0 in
19:20 63.3 °F 56.3 °F 30 in NE 3 mph 4 mph 78 % 0 in
19:22 74.7 °F 55.2 °F 29.9 in NW 6.2 mph 6.2 mph 51 % 0 in
19:27 74.3 °F 55.6 °F 29.9 in ESE 5.8 mph 6.7 mph 52 % 0 in
19:30 63.1 °F 56.1 °F 30 in NE 3 mph 4 mph 78 % 0 in
19:32 73.9 °F 55.8 °F 29.9 in ENE 6.9 mph 6.9 mph 53 % 0 in
19:37 73.6 °F 56.5 °F 29.9 in ENE 6.2 mph 6.2 mph 55 % 0 in
19:40 63.1 °F 56.5 °F 30 in NNE 2 mph 3 mph 79 % 0 in
19:42 73.4 °F 55.8 °F 29.9 in SE 5.8 mph 5.8 mph 54 % 0 in
19:47 73.2 °F 56.1 °F 29.9 in NNE 5.8 mph 5.8 mph 55 % 0 in
19:50 63.1 °F 56.5 °F 30 in NE 2 mph 3 mph 79 % 0 in
19:52 73 °F 56.5 °F 29.9 in NNE 6.9 mph 6.9 mph 56 % 0 in
19:57 72.9 °F 56.1 °F 29.9 in ENE 4.6 mph 4.6 mph 56 % 0 in
20:00 63.1 °F 56.5 °F 30 in NE 2 mph 3 mph 79 % 0 in
20:02 72.7 °F 56.1 °F 29.9 in ENE 5.8 mph 5.8 mph 56 % 0 in
20:07 72.5 °F 56.5 °F 29.9 in NE 4.5 mph 4.5 mph 57 % 0 in
20:10 62.8 °F 56.5 °F 30 in NE 3 mph 4 mph 80 % 0 in
20:12 72.5 °F 55.9 °F 29.9 in NNE 5.8 mph 5.8 mph 56 % 0 in
20:17 72.3 °F 55.8 °F 29.9 in East 4.6 mph 4.6 mph 56 % 0 in
20:20 62.8 °F 56.5 °F 30 in NE 3 mph 3 mph 80 % 0 in
20:22 72.1 °F 55.6 °F 29.9 in ESE 4.6 mph 4.6 mph 56 % 0 in
20:27 72 °F 55.4 °F 29.9 in ENE 5.8 mph 5.8 mph 56 % 0 in
20:30 62.8 °F 56.5 °F 30 in NE 2 mph 4 mph 80 % 0 in
20:32 71.6 °F 55.6 °F 29.9 in NNW 3.5 mph 3.5 mph 57 % 0 in
20:37 71.2 °F 56.1 °F 29.9 in East 5.8 mph 5.8 mph 59 % 0 in
20:40 62.8 °F 56.5 °F 30 in NE 3 mph 4 mph 80 % 0 in
20:42 71.1 °F 55.9 °F 29.9 in ENE 3.5 mph 3.5 mph 59 % 0 in
20:47 70.7 °F 56.1 °F 29.9 in NNE 4.6 mph 4.6 mph 60 % 0 in
20:50 63 °F 57 °F 30 in NE 3 mph 4 mph 81 % 0 in
20:52 70.3 °F 56.1 °F 29.9 in NNE 4.6 mph 4.6 mph 61 % 0 in
20:57 70 °F 55.9 °F 29.9 in NNE 4.6 mph 4.6 mph 61 % 0 in
21:00 63 °F 57 °F 30 in NE 3 mph 4 mph 81 % 0 in
21:02 69.8 °F 56.1 °F 29.9 in NNE 4.6 mph 4.6 mph 62 % 0 in
21:07 69.3 °F 56.1 °F 29.9 in ESE 3.5 mph 3.5 mph 63 % 0 in
21:10 62.8 °F 56.8 °F 30 in NE 3 mph 4 mph 81 % 0 in
21:12 69.1 °F 55.9 °F 29.9 in ENE 4.6 mph 4.6 mph 63 % 0 in
21:17 68.7 °F 55.9 °F 29.9 in NNE 4.6 mph 4.6 mph 64 % 0 in
21:20 63 °F 57 °F 30 in NE 5 mph 6 mph 81 % 0 in
21:22 68.4 °F 55.8 °F 29.9 in NE 6 mph 6 mph 64 % 0 in
21:27 68.2 °F 55.9 °F 29.9 in NNE 3.5 mph 3.5 mph 65 % 0 in
21:30 63.1 °F 57.6 °F 30 in ENE 3 mph 5 mph 82 % 0 in
21:32 67.8 °F 56.5 °F 29.9 in ENE 3.8 mph 3.8 mph 67 % 0 in
21:37 67.6 °F 56.3 °F 29.9 in ENE 3.5 mph 3.5 mph 67 % 0 in
21:40 63.1 °F 57.6 °F 30 in ENE 3 mph 4 mph 82 % 0 in
21:42 67.5 °F 56.1 °F 29.9 in NNE 5.4 mph 5.4 mph 67 % 0 in
21:47 67.1 °F 56.1 °F 29.9 in ENE 4.6 mph 4.6 mph 68 % 0 in
21:50 63.1 °F 57.6 °F 30 in ENE 2 mph 5 mph 82 % 0 in
21:52 66.9 °F 55.9 °F 29.9 in ENE 2.3 mph 2.4 mph 68 % 0 in
21:57 66.7 °F 55.8 °F 29.9 in NNE 2.9 mph 2.9 mph 68 % 0 in
22:00 63.3 °F 57.7 °F 30 in ENE 3 mph 7 mph 82 % 0 in
22:02 66.6 °F 56.5 °F 29.9 in NNE 4.6 mph 4.6 mph 70 % 0 in
22:07 66.2 °F 56.1 °F 30 in NE 4.6 mph 4.6 mph 70 % 0 in
22:10 63.1 °F 57.6 °F 30 in ENE 3 mph 5 mph 82 % 0 in
22:12 66 °F 56.3 °F 30 in ENE 3.5 mph 3.5 mph 71 % 0 in
22:17 65.8 °F 56.7 °F 30 in ENE 4 mph 4 mph 72 % 0 in
22:20 63.3 °F 57.7 °F 30 in ENE 3 mph 4 mph 82 % 0 in
22:22 65.8 °F 56.7 °F 30 in NNE 3.5 mph 3.5 mph 72 % 0 in
22:27 65.7 °F 56.8 °F 30 in ENE 3.6 mph 3.6 mph 73 % 0 in
22:30 63.3 °F 57.7 °F 30 in ENE 3 mph 5 mph 82 % 0 in
22:32 65.7 °F 56.8 °F 30 in NNE 4.6 mph 4.6 mph 73 % 0 in
22:37 65.5 °F 56.7 °F 30 in NNE 3.5 mph 3.5 mph 73 % 0 in
22:40 63.3 °F 57.7 °F 30 in East 3 mph 6 mph 82 % 0 in
22:42 65.5 °F 56.7 °F 30 in NE 2.3 mph 2.3 mph 73 % 0 in
22:47 65.3 °F 56.8 °F 30 in ESE 2.4 mph 2.4 mph 74 % 0 in
22:50 63.3 °F 57.7 °F 30 in East 2 mph 6 mph 82 % 0 in
22:52 65.3 °F 56.8 °F 30 in NNE 2.3 mph 2.4 mph 74 % 0 in
22:57 65.3 °F 56.8 °F 30 in NNE 2.9 mph 2.9 mph 74 % 0 in
23:00 63.1 °F 57.6 °F 30 in East 3 mph 6 mph 82 % 0 in
23:02 65.3 °F 56.8 °F 30 in NE 3.5 mph 3.5 mph 74 % 0 in
23:07 65.3 °F 56.8 °F 30 in NE 2.9 mph 2.9 mph 74 % 0 in
23:10 63.3 °F 57.7 °F 30 in East 3 mph 4 mph 82 % 0 in
23:12 65.1 °F 56.7 °F 30 in NNE 3.5 mph 3.5 mph 74 % 0 in
23:17 65.1 °F 56.7 °F 30 in ENE 3.5 mph 3.5 mph 74 % 0 in
23:22 64.9 °F 56.8 °F 30 in NNE 4.6 mph 4.6 mph 75 % 0 in
23:27 64.8 °F 56.7 °F 30 in ENE 3.5 mph 3.5 mph 75 % 0 in
23:30 63.1 °F 57.6 °F 30 in ENE 3 mph 4 mph 82 % 0 in
23:32 64.6 °F 56.5 °F 30 in NE 3.6 mph 3.6 mph 75 % 0 in
23:37 64.2 °F 56.5 °F 30 in NNE 3.5 mph 3.5 mph 76 % 0 in
23:40 63.3 °F 57.4 °F 30 in ENE 2 mph 5 mph 81 % 0 in
23:42 64 °F 56.3 °F 30 in East 2.3 mph 2.3 mph 76 % 0 in
23:47 64 °F 56.3 °F 30 in NNE 4.6 mph 4.6 mph 76 % 0 in
23:50 63.3 °F 57.4 °F 30 in ENE 3 mph 6 mph 81 % 0 in
23:52 63.9 °F 56.5 °F 30 in ENE 2.3 mph 2.3 mph 77 % 0 in
23:57 63.7 °F 56.3 °F 30 in NNE 4.6 mph 4.6 mph 77 % 0 in
Meteo Sesrovires
Elogis d' Weather Underground - 3.75 mb

Guio original per  Jim McMurry - jmcmurry@mwt.net Adaptat per a la plantilla per  Wim van der Kuil - Leuven-Template.eu

Trobareu la nostra informacio del temps tambe a:

Weather Underground

AWEKAS